Terminal Aerodrome Forecast
Issued by NWS Tulsa, OK

Home | Current Version | Previous Version | Text Only | Print | Product List | Glossary On
Versions: 1 2 3 4 5 6 7 8 9 10 11 12 13 14 15 16 17 18 19 20 21 22 23 24 25 26 27 28
000
FTUS44 KTSA 202328
TAFFSM
TAF
KFSM 202328Z 2100/2124 11010KT P6SM OVC015
      TEMPO 2100/2104 3SM -SHRA OVC007
     FM210600 08007KT P6SM OVC025
     FM211500 15011KT P6SM BKN050=

USA.gov is the U.S. government's official web portal to all federal, state and local government web resources and services.